Time;durP1;ratioP1;P1;durP2;ratioP2;P2;SDS_P1;SDS_P2;PMS_P1;PMS_P2;Temp;Humidity;BMP_temperature;BMP_pressure;BME280_temperature;BME280_humidity;BME280_pressure;Samples;Min_cycle;Max_cycle;Signal;HPM_P1;HPM_P2
2022/04/21 00:01:34;;;;;;;14.03;8.20;;;7.00;99.90;;;;;;5048187;28;20052;-35
2022/04/21 00:03:59;;;;;;;12.50;8.73;;;7.00;99.90;;;;;;5044545;28;20156;-35
2022/04/21 00:06:25;;;;;;;12.20;7.73;;;6.90;99.90;;;;;;5034227;28;20457;-35
2022/04/21 00:08:50;;;;;;;13.63;8.80;;;6.90;99.90;;;;;;5042745;28;20060;-35
2022/04/21 00:11:16;;;;;;;14.53;8.63;;;6.90;99.90;;;;;;5046168;28;20041;-35
2022/04/21 00:13:42;;;;;;;13.73;9.07;;;6.90;99.90;;;;;;5045788;28;20488;-35
2022/04/21 00:16:08;;;;;;;14.00;8.77;;;6.90;99.90;;;;;;5044223;28;20451;-35
2022/04/21 00:18:34;;;;;;;12.77;9.07;;;7.00;99.90;;;;;;5032618;28;20051;-35
2022/04/21 00:21:01;;;;;;;15.03;9.63;;;6.80;99.90;;;;;;5046022;28;20056;-35
2022/04/21 00:23:27;;;;;;;14.33;8.80;;;6.70;99.90;;;;;;5045593;28;20128;-35
2022/04/21 00:25:58;;;;;;;13.07;8.73;;;6.70;99.90;;;;;;5045221;28;20072;-35
2022/04/21 00:28:25;;;;;;;15.15;9.15;;;6.70;99.90;;;;;;5030497;28;20045;-35
2022/04/21 00:30:51;;;;;;;15.93;9.43;;;6.70;99.90;;;;;;5045874;28;20226;-35
2022/04/21 00:33:17;;;;;;;13.83;9.23;;;6.60;99.90;;;;;;5045526;28;20041;-35
2022/04/21 00:35:43;;;;;;;15.40;9.67;;;6.60;99.90;;;;;;5044630;28;20049;-35
2022/04/21 00:38:09;;;;;;;13.63;9.10;;;6.60;99.90;;;;;;5031252;28;20074;-35
2022/04/21 00:40:35;;;;;;;14.00;9.63;;;6.50;99.90;;;;;;5045521;28;20127;-35
2022/04/21 00:43:01;;;;;;;15.07;9.90;;;6.50;99.90;;;;;;5045262;28;20072;-36
2022/04/21 00:45:29;;;;;;;16.60;10.63;;;6.50;99.90;;;;;;5045665;28;20455;-35
2022/04/21 00:47:56;;;;;;;14.83;9.73;;;6.50;99.90;;;;;;5030098;28;20037;-35
2022/04/21 00:50:28;;;;;;;14.83;9.70;;;6.40;99.90;;;;;;5045456;28;20044;-35
2022/04/21 00:52:54;;;;;;;;;;;6.40;99.90;;;;;;5045742;28;20074;-35
2022/04/21 00:55:21;;;;;;;15.20;10.30;;;6.40;99.90;;;;;;5045240;28;19931;-35
2022/04/21 00:57:48;;;;;;;17.13;9.83;;;6.30;99.90;;;;;;5029295;28;20060;-35
2022/04/21 01:00:15;;;;;;;15.07;10.40;;;6.30;99.90;;;;;;5046244;28;20522;-35
2022/04/21 01:02:49;;;;;;;15.90;10.57;;;6.30;99.90;;;;;;5044540;28;20377;-35
2022/04/21 01:05:15;;;;;;;17.40;11.30;;;6.30;99.90;;;;;;5043784;28;20053;-35
2022/04/21 01:07:41;;;;;;;17.40;11.27;;;6.30;99.90;;;;;;5029444;28;20049;-35
2022/04/21 01:10:11;;;;;;;15.13;10.37;;;6.30;99.90;;;;;;5045361;28;20052;-35
2022/04/21 01:12:38;;;;;;;16.50;10.90;;;6.20;99.90;;;;;;5044689;28;20475;-35
2022/04/21 01:15:04;;;;;;;16.97;11.13;;;6.20;99.90;;;;;;5040559;28;20048;-35
2022/04/21 01:17:34;;;;;;;15.00;10.47;;;6.20;99.90;;;;;;5028690;28;20395;-35
2022/04/21 01:20:01;;;;;;;15.13;11.00;;;6.20;99.90;;;;;;5044975;28;20512;-34
2022/04/21 01:22:27;;;;;;;16.57;11.37;;;6.20;99.90;;;;;;5044207;28;20049;-35
2022/04/21 01:24:53;;;;;;;18.93;11.93;;;6.10;99.90;;;;;;5045489;28;20033;-35
2022/04/21 01:27:19;;;;;;;16.57;11.53;;;6.20;99.90;;;;;;5027775;28;20056;-35
2022/04/21 01:29:44;;;;;;;17.47;11.17;;;6.10;99.90;;;;;;5045230;28;20181;-35
2022/04/21 01:32:10;;;;;;;16.73;11.37;;;6.20;99.90;;;;;;5043949;28;20139;-35
2022/04/21 01:34:38;;;;;;;19.57;12.63;;;6.10;99.90;;;;;;5045247;28;20483;-35
2022/04/21 01:42:32;;;;;;;20.80;12.90;;;6.10;99.90;;;;;;5043881;28;20114;-35
2022/04/21 01:44:58;;;;;;;22.17;13.60;;;6.10;99.90;;;;;;5044851;28;20511;-35
2022/04/21 01:47:23;;;;;;;20.10;12.57;;;6.10;99.90;;;;;;5028065;28;20070;-36
2022/04/21 01:49:49;;;;;;;19.00;12.80;;;6.10;99.90;;;;;;5044651;28;20044;-35
2022/04/21 01:52:16;;;;;;;20.73;12.60;;;6.10;99.90;;;;;;5043472;28;20048;-35
2022/04/21 01:54:41;;;;;;;19.87;12.87;;;6.10;99.90;;;;;;5044702;28;20300;-35
2022/04/21 01:57:07;;;;;;;21.10;13.17;;;6.20;99.90;;;;;;5028256;28;20117;-35
2022/04/21 01:59:32;;;;;;;16.90;12.33;;;6.10;99.90;;;;;;5044172;28;20076;-35
2022/04/21 02:01:58;;;;;;;19.67;13.13;;;6.00;99.90;;;;;;5044954;28;20064;-35
2022/04/21 02:04:24;;;;;;;20.53;13.80;;;6.00;99.90;;;;;;5040544;28;20045;-35
2022/04/21 02:06:49;;;;;;;23.97;13.77;;;6.00;99.90;;;;;;5028746;28;20399;-35
2022/04/21 02:09:15;;;;;;;21.57;14.43;;;6.00;99.90;;;;;;5042105;28;20278;-35
2022/04/21 02:11:41;;;;;;;18.00;12.93;;;6.00;99.90;;;;;;5042525;28;20128;-35
2022/04/21 02:14:06;;;;;;;19.73;13.07;;;5.90;99.90;;;;;;5043568;28;20045;-35
2022/04/21 02:16:32;;;;;;;20.33;13.47;;;6.00;99.90;;;;;;5027347;28;20518;-35
2022/04/21 02:18:58;;;;;;;18.73;13.13;;;6.00;99.90;;;;;;5041128;28;20056;-35
2022/04/21 02:21:24;;;;;;;20.13;12.70;;;6.00;99.90;;;;;;5042953;28;20058;-35
2022/04/21 02:23:49;;;;;;;19.23;12.90;;;5.90;99.90;;;;;;5043402;28;20110;-34
2022/04/21 02:26:15;;;;;;;21.27;12.80;;;5.90;99.90;;;;;;5033238;28;20147;-35
2022/04/21 02:28:40;;;;;;;18.13;11.97;;;5.90;99.90;;;;;;5037361;28;20072;-34
2022/04/21 02:31:06;;;;;;;20.67;13.30;;;5.90;99.90;;;;;;5026121;28;20084;-35
2022/04/21 02:33:32;;;;;;;19.40;13.50;;;5.90;99.90;;;;;;5042987;28;20513;-34
2022/04/21 02:35:58;;;;;;;20.27;12.90;;;5.90;99.90;;;;;;5044142;28;21265;-35
2022/04/21 02:38:23;;;;;;;21.93;13.40;;;5.90;99.90;;;;;;5028261;28;20045;-34
2022/04/21 02:40:49;;;;;;;18.30;13.10;;;5.80;99.90;;;;;;5044421;28;20499;-35
2022/04/21 02:43:15;;;;;;;19.63;13.80;;;5.90;99.90;;;;;;5042818;28;20448;-35
2022/04/21 02:45:42;;;;;;;20.03;13.63;;;5.80;99.90;;;;;;5044285;28;20459;-35
2022/04/21 02:48:09;;;;;;;23.93;13.57;;;5.80;99.90;;;;;;5027243;28;20496;-35
2022/04/21 02:50:34;;;;;;;18.07;13.43;;;5.80;99.90;;;;;;5043995;28;20115;-34
2022/04/21 02:53:00;;;;;;;16.30;12.50;;;5.90;99.90;;;;;;5041510;28;20069;-34
2022/04/21 02:58:11;;;;;;;20.37;14.00;;;5.80;99.90;;;;;;5027465;28;20048;-35
2022/04/21 03:00:36;;;;;;;22.03;13.53;;;5.90;99.90;;;;;;5045724;28;20040;-35
2022/04/21 03:03:02;;;;;;;20.83;13.10;;;5.70;99.90;;;;;;5058353;28;20550;-34
2022/04/21 03:05:28;;;;;;;18.80;12.50;;;5.70;99.90;;;;;;5023384;28;20817;-34
2022/04/21 03:07:54;;;;;;;17.30;12.03;;;5.70;99.90;;;;;;5027272;28;20056;-35
2022/04/21 03:10:20;;;;;;;18.27;12.03;;;5.80;99.90;;;;;;5042233;28;20048;-34
2022/04/21 03:12:46;;;;;;;16.90;12.40;;;5.70;99.90;;;;;;5041145;28;20053;-35
2022/04/21 03:15:12;;;;;;;21.13;12.67;;;5.80;99.90;;;;;;5041330;28;20065;-34
2022/04/21 03:17:39;;;;;;;17.23;11.93;;;5.70;99.90;;;;;;5026916;28;20041;-35
2022/04/21 03:20:05;;;;;;;21.17;12.40;;;5.70;99.90;;;;;;5039658;28;20053;-35
2022/04/21 03:25:17;;;;;;;15.67;11.90;;;5.60;99.90;;;;;;5046723;28;20047;-34
2022/04/21 03:27:48;;;;;;;15.83;10.70;;;5.60;99.90;;;;;;5029047;28;20099;-34
2022/04/21 03:30:14;;;;;;;14.23;10.57;;;5.70;99.90;;;;;;5062911;28;20053;-34
2022/04/21 03:32:40;;;;;;;16.70;11.47;;;5.60;99.90;;;;;;5044603;28;20435;-34
2022/04/21 03:35:06;;;;;;;16.50;11.50;;;5.50;99.90;;;;;;5047342;28;20760;-34
2022/04/21 03:37:32;;;;;;;18.30;11.00;;;5.50;99.90;;;;;;5013604;28;20045;-35
2022/04/21 03:39:58;;;;;;;16.40;11.23;;;5.50;99.90;;;;;;5047582;28;20088;-34
2022/04/21 03:42:27;;;;;;;16.40;11.30;;;5.40;99.90;;;;;;5045718;28;20080;-35
2022/04/21 03:44:53;;;;;;;17.07;10.70;;;5.40;99.90;;;;;;5045698;28;20072;-35
2022/04/21 03:47:20;;;;;;;16.33;10.03;;;5.30;99.90;;;;;;5030702;28;20522;-35
2022/04/21 03:49:46;;;;;;;18.00;9.67;;;5.30;99.90;;;;;;5047067;28;20045;-34
2022/04/21 03:52:12;;;;;;;14.60;9.97;;;5.30;99.90;;;;;;5046358;28;20041;-35
2022/04/21 03:54:39;;;;;;;13.53;9.87;;;5.30;99.90;;;;;;5044174;28;20401;-34
2022/04/21 03:57:06;;;;;;;16.20;9.73;;;5.20;99.90;;;;;;5031034;28;20037;-35
2022/04/21 03:59:32;;;;;;;14.03;9.20;;;5.20;99.90;;;;;;5047396;28;20040;-34
2022/04/21 04:02:04;;;;;;;12.70;8.63;;;5.10;99.90;;;;;;5047640;28;20044;-35
2022/04/21 04:04:33;;;;;;;;;;;5.10;99.90;;;;;;5044093;28;20124;-34
2022/04/21 04:12:36;;;;;;;13.33;9.90;;;5.00;99.90;;;;;;5026022;28;20048;-35
2022/04/21 04:15:03;;;;;;;14.40;9.13;;;5.00;99.90;;;;;;5023294;28;20378;-34
2022/04/21 04:17:29;;;;;;;12.10;9.07;;;5.00;99.90;;;;;;5010264;28;20057;-35
2022/04/21 04:19:55;;;;;;;13.63;9.57;;;5.00;99.90;;;;;;5024505;28;20141;-34
2022/04/21 04:22:21;;;;;;;13.20;10.20;;;4.90;99.90;;;;;;5025608;28;20125;-35
2022/04/21 04:24:50;;;;;;;13.33;9.87;;;4.90;99.90;;;;;;5026426;28;20038;-34
2022/04/21 04:27:16;;;;;;;14.07;9.57;;;4.90;99.90;;;;;;5010506;28;20124;-35
2022/04/21 04:29:41;;;;;;;14.40;9.40;;;4.90;99.90;;;;;;5026324;28;20581;-34
2022/04/21 04:32:07;;;;;;;13.07;9.77;;;4.90;99.90;;;;;;5025851;28;20323;-35
2022/04/21 04:34:33;;;;;;;13.77;9.90;;;4.80;99.90;;;;;;5025890;28;20508;-34
2022/04/21 04:36:58;;;;;;;16.43;10.47;;;4.80;99.90;;;;;;5011506;28;20463;-34
2022/04/21 04:39:24;;;;;;;14.57;10.17;;;4.80;99.90;;;;;;5025436;28;20522;-34
2022/04/21 04:44:34;;;;;;;13.73;9.60;;;4.80;99.90;;;;;;5023603;28;20051;-34
2022/04/21 04:47:00;;;;;;;14.47;9.37;;;4.80;99.90;;;;;;5010927;28;20823;-34
2022/04/21 04:49:25;;;;;;;15.07;9.77;;;4.80;99.90;;;;;;5024564;28;20130;-34
2022/04/21 04:51:51;;;;;;;14.40;10.27;;;5.00;99.90;;;;;;5025916;28;20056;-34
2022/04/21 04:54:17;;;;;;;13.10;9.60;;;4.80;99.90;;;;;;5024895;28;20124;-34
2022/04/21 04:56:45;;;;;;;14.47;9.43;;;4.80;99.90;;;;;;5011901;28;20436;-34
2022/04/21 04:59:11;;;;;;;18.00;10.43;;;4.80;99.90;;;;;;5024374;28;20072;-34
2022/04/21 05:01:42;;;;;;;15.07;9.90;;;4.80;99.90;;;;;;5027519;28;20045;-34
2022/04/21 05:04:10;;;;;;;11.95;7.93;;;4.80;99.90;;;;;;5022608;28;20049;-34
2022/04/21 05:06:38;;;;;;;14.23;10.13;;;4.90;99.90;;;;;;5010198;28;20451;-35
2022/04/21 05:09:05;;;;;;;15.00;9.57;;;4.90;99.90;;;;;;5022829;28;20116;-34
2022/04/21 05:11:35;;;;;;;13.10;9.97;;;4.90;99.90;;;;;;5025801;28;20044;-34
2022/04/21 05:14:02;;;;;;;14.20;10.00;;;5.00;99.90;;;;;;5024165;28;20052;-34
2022/04/21 05:16:28;;;;;;;14.30;10.07;;;5.00;99.90;;;;;;5012250;28;20551;-34
2022/04/21 05:18:55;;;;;;;15.97;10.83;;;5.00;99.90;;;;;;5020185;28;20081;-35
2022/04/21 05:21:21;;;;;;;15.60;10.50;;;5.10;99.90;;;;;;5025026;28;20260;-35
2022/04/21 05:23:47;;;;;;;14.87;10.33;;;5.10;99.90;;;;;;5021799;28;20081;-35
2022/04/21 05:26:15;;;;;;;17.87;10.83;;;5.20;99.90;;;;;;5012993;28;20045;-35
2022/04/21 05:28:44;;;;;;;15.83;10.30;;;5.20;99.90;;;;;;5017851;28;20077;-35
2022/04/21 05:31:11;;;;;;;15.57;11.10;;;5.30;99.90;;;;;;5025140;28;20316;-34
2022/04/21 05:33:38;;;;;;;18.00;11.17;;;5.40;99.90;;;;;;5021940;28;20072;-34
2022/04/21 05:36:05;;;;;;;17.50;11.90;;;5.50;99.90;;;;;;5020306;28;20121;-34
2022/04/21 05:38:31;;;;;;;16.63;11.40;;;5.60;99.90;;;;;;5009089;28;20103;-34
2022/04/21 05:40:58;;;;;;;15.47;10.87;;;5.70;99.90;;;;;;5023267;28;20049;-34
2022/04/21 05:43:30;;;;;;;16.90;11.17;;;5.70;99.90;;;;;;5024018;28;20045;-35
2022/04/21 05:45:56;;;;;;;19.13;11.97;;;5.80;99.90;;;;;;5022750;28;20501;-34
2022/04/21 05:48:22;;;;;;;17.47;11.37;;;6.00;99.90;;;;;;5008084;28;20049;-35
2022/04/21 05:50:51;;;;;;;15.27;11.70;;;6.10;99.90;;;;;;5024389;28;20049;-34
2022/04/21 05:53:21;;;;;;;16.80;12.43;;;6.20;99.90;;;;;;5024035;28;20088;-35
2022/04/21 05:55:47;;;;;;;21.23;12.43;;;6.30;99.90;;;;;;5021974;28;20050;-35
2022/04/21 05:58:13;;;;;;;14.90;11.40;;;6.40;99.90;;;;;;5007110;28;20300;-35
2022/04/21 06:00:39;;;;;;;17.77;11.93;;;6.50;99.90;;;;;;5026006;28;20060;-35
2022/04/21 06:03:05;;;;;;;17.77;11.20;;;6.80;99.90;;;;;;5024083;28;20100;-34
2022/04/21 06:05:31;;;;;;;16.93;11.80;;;6.80;99.90;;;;;;5021065;28;20079;-35
2022/04/21 06:07:57;;;;;;;16.93;11.87;;;6.90;99.90;;;;;;5008551;28;20052;-35
2022/04/21 06:10:22;;;;;;;15.60;10.80;;;7.10;99.90;;;;;;5024042;28;20049;-35
2022/04/21 06:12:49;;;;;;;15.63;11.43;;;7.20;99.90;;;;;;5023417;28;20145;-35
2022/04/21 06:15:15;;;;;;;15.97;10.20;;;7.40;99.90;;;;;;5020681;28;20121;-35
2022/04/21 06:17:42;;;;;;;14.30;10.27;;;7.50;99.90;;;;;;5008297;28;20054;-35
2022/04/21 06:20:09;;;;;;;16.43;11.23;;;7.60;99.90;;;;;;5022033;28;20134;-35
2022/04/21 06:22:35;;;;;;;17.10;11.17;;;7.80;99.90;;;;;;5023636;28;20049;-35
2022/04/21 06:25:00;;;;;;;15.63;10.33;;;7.90;99.90;;;;;;5020763;28;20045;-35
2022/04/21 06:27:26;;;;;;;13.90;10.20;;;8.10;99.90;;;;;;5004876;28;20068;-36
2022/04/21 06:29:52;;;;;;;12.00;9.37;;;8.20;99.90;;;;;;5020653;28;20175;-35
2022/04/21 06:32:17;;;;;;;15.73;10.27;;;8.30;99.90;;;;;;5020266;28;20040;-35
2022/04/21 06:34:43;;;;;;;14.13;10.07;;;8.50;99.90;;;;;;5020511;28;20179;-35
2022/04/21 06:37:09;;;;;;;15.57;9.80;;;8.60;99.90;;;;;;5005894;28;20041;-35
2022/04/21 06:39:34;;;;;;;15.80;9.33;;;8.70;99.90;;;;;;5021120;28;20048;-35
2022/04/21 06:42:00;;;;;;;14.03;8.97;;;8.90;99.90;;;;;;5020949;28;20060;-35
2022/04/21 06:49:54;;;;;;;10.87;7.67;;;9.30;99.90;;;;;;5021081;28;20057;-35
2022/04/21 06:52:20;;;;;;;11.47;8.40;;;9.50;99.90;;;;;;5021365;28;20092;-36
2022/04/21 06:54:46;;;;;;;9.73;7.80;;;9.50;99.90;;;;;;5021508;28;20049;-36
2022/04/21 06:57:11;;;;;;;12.07;7.53;;;9.60;99.90;;;;;;5008012;28;20038;-36
2022/04/21 06:59:39;;;;;;;12.70;8.40;;;9.70;99.90;;;;;;5028300;28;20128;-36
2022/04/21 07:02:05;;;;;;;9.70;7.30;;;9.80;99.90;;;;;;5025560;28;20084;-37
2022/04/21 07:04:30;;;;;;;9.77;7.27;;;9.90;99.90;;;;;;5025428;28;20580;-36
2022/04/21 07:06:56;;;;;;;9.47;6.43;;;10.00;99.90;;;;;;5003662;28;20046;-36
2022/04/21 07:09:22;;;;;;;11.40;7.07;;;10.10;99.90;;;;;;5021797;28;20136;-36
2022/04/21 07:11:48;;;;;;;11.50;7.83;;;10.20;99.90;;;;;;5022750;28;20242;-36
2022/04/21 07:14:13;;;;;;;10.63;7.77;;;10.20;99.90;;;;;;5023801;28;20244;-36
2022/04/21 07:16:39;;;;;;;12.60;7.57;;;10.30;99.90;;;;;;5011138;28;20100;-36
2022/04/21 07:19:05;;;;;;;12.13;7.67;;;10.40;99.90;;;;;;5021252;28;20160;-35
2022/04/21 07:21:30;;;;;;;11.90;7.70;;;10.50;99.90;;;;;;5026273;28;20053;-36
2022/04/21 07:23:56;;;;;;;10.60;7.38;;;10.50;99.90;;;;;;5025124;28;20053;-36
2022/04/21 07:26:22;;;;;;;9.00;7.68;;;10.60;99.90;;;;;;5014974;28;20143;-36
2022/04/21 07:28:48;;;;;;;10.90;7.37;;;10.70;99.90;;;;;;5022018;28;20045;-36
2022/04/21 07:31:13;;;;;;;9.60;7.40;;;10.70;99.90;;;;;;5024219;28;20485;-35
2022/04/21 07:33:39;;;;;;;8.65;6.65;;;10.80;99.90;;;;;;5005880;28;20460;-36
2022/04/21 07:36:05;;;;;;;9.38;6.50;;;10.90;99.90;;;;;;5024138;28;20046;-36
2022/04/21 07:38:31;;;;;;;8.02;6.00;;;10.90;99.90;;;;;;5009794;28;20064;-36
2022/04/21 07:40:57;;;;;;;9.13;6.10;;;11.00;99.90;;;;;;5023466;28;20140;-36
2022/04/21 07:43:23;;;;;;;7.97;5.72;;;11.00;99.90;;;;;;5023552;28;20084;-36
2022/04/21 07:45:51;;;;;;;9.15;5.55;;;11.10;99.90;;;;;;5023818;28;20121;-36
2022/04/21 07:48:17;;;;;;;6.65;4.93;;;11.10;99.90;;;;;;5008041;28;20041;-36
2022/04/21 07:50:43;;;;;;;7.22;4.38;;;11.10;99.90;;;;;;5023014;28;20531;-36
2022/04/21 07:53:15;;;;;;;5.60;4.00;;;11.20;99.90;;;;;;5021878;28;20120;-36
2022/04/21 07:55:50;;;;;;;4.38;3.20;;;11.30;99.90;;;;;;5023587;28;20042;-36
2022/04/21 07:58:16;;;;;;;4.53;2.85;;;11.30;99.90;;;;;;5006025;28;20116;-36
2022/04/21 08:00:42;;;;;;;4.90;3.03;;;11.30;99.90;;;;;;5023305;28;20045;-36
2022/04/21 08:03:09;;;;;;;5.50;2.60;;;11.30;99.90;;;;;;5022114;28;20088;-36
2022/04/21 08:05:36;;;;;;;2.83;2.47;;;11.40;99.90;;;;;;5024507;28;20042;-36
2022/04/21 08:08:03;;;;;;;5.20;2.42;;;11.40;99.90;;;;;;5008708;28;20049;-36
2022/04/21 08:10:29;;;;;;;4.80;2.80;;;11.50;99.90;;;;;;5020432;28;20057;-36
2022/04/21 08:12:59;;;;;;;4.78;2.90;;;11.50;99.90;;;;;;5023110;28;20045;-36
2022/04/21 08:15:29;;;;;;;4.95;2.67;;;11.50;99.90;;;;;;5028742;28;20049;-36
2022/04/21 08:18:04;;;;;;;3.60;2.80;;;11.60;99.90;;;;;;5007526;28;20400;-36
2022/04/21 08:20:32;;;;;;;6.70;2.80;;;11.60;99.90;;;;;;5021525;28;20583;-36
2022/04/21 08:22:58;;;;;;;5.95;3.25;;;11.70;99.90;;;;;;5021872;28;20049;-36
2022/04/21 08:33:37;;;;;;;4.60;3.63;;;11.90;99.90;;;;;;5024628;28;20048;-36
2022/04/21 08:36:03;;;;;;;6.20;3.78;;;11.90;99.90;;;;;;5024064;28;20045;-36
2022/04/21 08:38:30;;;;;;;5.45;3.80;;;12.00;99.90;;;;;;5008249;28;20132;-36
2022/04/21 08:40:58;;;;;;;9.70;4.40;;;12.10;99.90;;;;;;5024499;28;20171;-36
2022/04/21 08:43:27;;;;;;;6.15;4.40;;;12.10;99.90;;;;;;5024096;28;20076;-36
2022/04/21 08:45:54;;;;;;;7.75;4.63;;;12.10;99.90;;;;;;5021535;28;20041;-36
2022/04/21 08:48:25;;;;;;;5.32;3.95;;;12.10;99.90;;;;;;5024230;28;20045;-36
2022/04/21 08:50:51;;;;;;;7.85;4.00;;;12.20;99.90;;;;;;5022133;28;20045;-36
2022/04/21 08:53:19;;;;;;;5.63;3.70;;;12.20;99.90;;;;;;5024505;28;20060;-36
2022/04/21 08:55:47;;;;;;;4.20;2.70;;;12.30;99.90;;;;;;5023407;28;20045;-36
2022/04/21 08:58:13;;;;;;;6.38;3.03;;;12.40;99.90;;;;;;5008704;28;20496;-36
2022/04/21 09:00:39;;;;;;;5.78;2.90;;;12.50;99.90;;;;;;5024141;28;20045;-36
2022/04/21 09:03:08;;;;;;;6.88;3.30;;;12.50;99.90;;;;;;5024245;28;20314;-36
2022/04/21 09:05:34;;;;;;;4.22;2.90;;;12.50;99.90;;;;;;5036883;28;20053;-36
2022/04/21 09:08:01;;;;;;;4.88;2.83;;;12.60;99.90;;;;;;5007756;28;20164;-36
2022/04/21 09:10:33;;;;;;;3.38;2.70;;;12.60;99.90;;;;;;5022311;28;20029;-36
2022/04/21 09:13:02;;;;;;;6.00;2.85;;;12.70;99.90;;;;;;5023728;28;20484;-36
2022/04/21 09:15:32;;;;;;;3.47;2.63;;;12.80;99.90;;;;;;5023767;28;20053;-36
2022/04/21 09:18:07;;;;;;;6.27;2.97;;;12.90;99.90;;;;;;5007491;28;20564;-36
2022/04/21 09:20:35;;;;;;;4.38;2.78;;;12.90;99.90;;;;;;5022868;28;20057;-36
2022/04/21 09:23:06;;;;;;;4.35;2.50;;;13.00;99.90;;;;;;5021994;28;20060;-36
2022/04/21 09:25:44;;;;;;;5.82;3.10;;;13.10;99.90;;;;;;5022501;28;20049;-36
2022/04/21 09:28:24;;;;;;;5.80;2.63;;;13.10;99.90;;;;;;5005079;28;20049;-36
2022/04/21 09:30:51;;;;;;;4.32;2.20;;;13.20;99.90;;;;;;5018863;28;20531;-36
2022/04/21 09:33:40;;;;;;;5.60;2.65;;;13.30;99.90;;;;;;5022431;28;20041;-36
2022/04/21 09:36:08;;;;;;;3.38;2.35;;;13.30;99.90;;;;;;5021519;28;20424;-36
2022/04/21 09:38:34;;;;;;;5.85;2.78;;;13.30;99.90;;;;;;5012252;28;20037;-36
2022/04/21 09:41:22;;;;;;;4.82;2.67;;;13.40;99.90;;;;;;5021771;28;20053;-36
2022/04/21 09:43:53;;;;;;;5.10;2.85;;;13.50;99.90;;;;;;5021602;28;20041;-36
2022/04/21 09:46:23;;;;;;;6.25;2.63;;;13.50;99.90;;;;;;5012695;28;20128;-37
2022/04/21 09:48:53;;;;;;;6.97;3.20;;;13.60;99.90;;;;;;5019888;28;20030;-36
2022/04/21 09:51:29;;;;;;;4.03;2.93;;;13.60;99.90;;;;;;5022216;28;20250;-37
2022/04/21 09:54:01;;;;;;;5.25;2.70;;;13.70;99.90;;;;;;5022768;28;20292;-36
2022/04/21 09:56:39;;;;;;;4.47;2.97;;;13.70;99.90;;;;;;5009639;28;20143;-37
2022/04/21 09:59:09;;;;;;;4.00;3.10;;;13.80;99.90;;;;;;5021593;28;20057;-36
2022/04/21 10:01:41;;;;;;;5.68;3.28;;;13.80;99.90;;;;;;5022828;28;20104;-37
2022/04/21 10:04:08;;;;;;;4.65;2.78;;;13.80;99.90;;;;;;5021716;28;20037;-36
2022/04/21 10:06:37;;;;;;;5.95;3.17;;;13.90;99.90;;;;;;5009257;28;20048;-36
2022/04/21 10:09:02;;;;;;;5.60;2.90;;;14.00;99.90;;;;;;5019928;28;20117;-36
2022/04/21 10:11:29;;;;;;;4.43;3.08;;;14.10;99.90;;;;;;5021633;28;20551;-36
2022/04/21 10:13:56;;;;;;;5.90;3.50;;;14.10;99.90;;;;;;5035254;28;20053;-36
2022/04/21 10:16:24;;;;;;;5.38;2.97;;;14.20;99.90;;;;;;5009430;28;20492;-37
2022/04/21 10:18:52;;;;;;;4.50;3.20;;;14.20;99.90;;;;;;5033065;28;20231;-37
2022/04/21 10:21:30;;;;;;;4.75;3.17;;;14.30;99.90;;;;;;5022345;28;20053;-37
2022/04/21 10:23:57;;;;;;;6.07;3.53;;;14.30;99.90;;;;;;5032760;28;20711;-37
2022/04/21 10:26:43;;;;;;;4.28;3.17;;;14.30;99.90;;;;;;5028746;28;20124;-37
2022/04/21 10:29:23;;;;;;;6.72;3.10;;;14.30;99.90;;;;;;5022588;28;20041;-37
2022/04/21 10:31:51;;;;;;;3.70;3.15;;;14.40;99.90;;;;;;5019229;28;20112;-37
2022/04/21 10:34:41;;;;;;;4.20;3.10;;;14.40;99.90;;;;;;5020296;28;20053;-37
2022/04/21 10:37:21;;;;;;;3.38;2.72;;;14.50;99.90;;;;;;5006118;28;20033;-37
2022/04/21 10:40:05;;;;;;;6.80;3.10;;;14.60;99.90;;;;;;5021332;28;20041;-37
2022/04/21 10:42:53;;;;;;;7.70;2.97;;;14.70;99.90;;;;;;5019951;28;20049;-36
2022/04/21 10:45:23;;;;;;;4.45;2.50;;;14.70;99.90;;;;;;5019125;28;20119;-37
2022/04/21 10:48:12;;;;;;;5.25;2.50;;;14.70;99.90;;;;;;5005528;28;20069;-37
2022/04/21 10:50:39;;;;;;;2.30;2.08;;;14.70;99.90;;;;;;5021455;28;20042;-36
2022/04/21 10:58:36;;;;;;;4.13;2.20;;;14.90;99.90;;;;;;5011956;28;20095;-37
2022/04/21 11:01:12;;;;;;;3.97;2.30;;;15.00;99.90;;;;;;5017997;28;20053;-36
2022/04/21 11:03:40;;;;;;;3.97;2.35;;;15.00;99.90;;;;;;5018084;28;20078;-37
2022/04/21 11:06:15;;;;;;;4.05;2.30;;;15.00;99.90;;;;;;5017667;28;20287;-37
2022/04/21 11:08:44;;;;;;;7.35;1.92;;;15.10;99.90;;;;;;5012261;28;20128;-37
2022/04/21 11:11:13;;;;;;;4.53;2.22;;;15.10;99.90;;;;;;5020292;28;20402;-37
2022/04/21 11:13:41;;;;;;;2.83;2.22;;;15.10;99.90;;;;;;5018390;28;20053;-37
2022/04/21 11:16:07;;;;;;;4.50;2.10;;;15.10;99.90;;;;;;5013447;28;20048;-37
2022/04/21 11:18:33;;;;;;;2.83;2.00;;;15.30;99.90;;;;;;5005920;28;20045;-37
2022/04/21 11:21:22;;;;;;;7.22;2.50;;;15.20;99.90;;;;;;5018377;28;20065;-37
2022/04/21 11:23:48;;;;;;;3.40;2.35;;;15.30;99.90;;;;;;5020871;28;20288;-37
2022/04/21 11:26:13;;;;;;;4.20;2.10;;;15.40;99.90;;;;;;5008679;28;20625;-38
2022/04/21 11:28:46;;;;;;;4.13;2.35;;;15.50;99.90;;;;;;5013964;28;20382;-37
2022/04/21 11:31:13;;;;;;;3.92;2.42;;;15.50;99.90;;;;;;5017778;28;20075;-37
2022/04/21 11:33:39;;;;;;;3.88;2.50;;;15.50;99.90;;;;;;5013837;28;20073;-37
2022/04/21 11:36:05;;;;;;;3.60;2.45;;;15.60;99.90;;;;;;5022123;28;20049;-37
2022/04/21 11:38:32;;;;;;;3.80;2.35;;;15.70;99.90;;;;;;5003964;28;20049;-37
2022/04/21 11:41:02;;;;;;;3.20;2.30;;;15.80;99.90;;;;;;5021670;28;20049;-37
2022/04/21 11:43:28;;;;;;;4.05;2.60;;;15.90;99.90;;;;;;5018551;28;20045;-37
2022/04/21 11:46:05;;;;;;;5.35;2.80;;;15.90;99.90;;;;;;5024123;28;20037;-37
2022/04/21 11:48:40;;;;;;;5.00;2.92;;;16.00;99.90;;;;;;5007526;28;20041;-37
2022/04/21 11:51:07;;;;;;;5.85;3.00;;;16.00;99.90;;;;;;5023576;28;20363;-37
2022/04/21 11:53:43;;;;;;;4.45;3.10;;;15.90;99.90;;;;;;5023161;28;20492;-37
2022/04/21 11:56:11;;;;;;;4.65;2.95;;;16.00;99.90;;;;;;5018258;28;20234;-38
2022/04/21 11:58:38;;;;;;;5.43;3.28;;;15.90;99.90;;;;;;5014259;28;20477;-37
2022/04/21 12:06:38;;;;;;;8.75;3.40;;;16.00;99.90;;;;;;5008935;28;20072;-38
2022/04/21 12:09:05;;;;;;;7.32;3.65;;;16.00;99.90;;;;;;5020570;28;20064;-37
2022/04/21 12:11:32;;;;;;;11.32;3.60;;;16.00;99.90;;;;;;5021170;28;20477;-37
2022/04/21 12:13:58;;;;;;;6.55;3.60;;;16.00;99.90;;;;;;5021570;28;20050;-37
2022/04/21 12:16:34;;;;;;;5.90;3.17;;;16.00;99.90;;;;;;5010840;28;20500;-38
2022/04/21 12:19:13;;;;;;;5.70;3.28;;;15.90;99.90;;;;;;5020392;28;20057;-37
2022/04/21 12:21:39;;;;;;;5.68;2.95;;;15.90;99.90;;;;;;5023068;28;20061;-37
2022/04/21 12:24:14;;;;;;;9.13;3.70;;;16.00;99.90;;;;;;5040420;28;20037;-37
2022/04/21 12:26:53;;;;;;;3.78;3.25;;;16.00;99.90;;;;;;5028732;28;20075;-37
2022/04/21 12:29:20;;;;;;;5.32;3.50;;;16.00;99.90;;;;;;5041482;28;20325;-37
2022/04/21 12:31:52;;;;;;;5.22;3.10;;;15.90;99.90;;;;;;5044064;28;20049;-37
2022/04/21 12:34:26;;;;;;;;;;;15.90;99.90;;;;;;5043355;28;20131;-37
2022/04/21 12:37:00;;;;;;;5.80;3.38;;;15.90;99.90;;;;;;5025122;28;20179;-37
2022/04/21 12:39:28;;;;;;;6.63;3.38;;;16.00;99.90;;;;;;5042307;28;20080;-37
2022/04/21 12:41:55;;;;;;;6.30;3.78;;;16.00;99.90;;;;;;5042045;28;20368;-37
2022/04/21 12:44:24;;;;;;;7.00;3.38;;;16.00;99.90;;;;;;5042181;28;20462;-37
2022/04/21 12:46:57;;;;;;;5.53;3.53;;;16.00;99.90;;;;;;5026368;28;20631;-38
2022/04/21 12:49:24;;;;;;;6.10;3.35;;;16.00;99.90;;;;;;5040999;28;20045;-37
2022/04/21 12:51:50;;;;;;;6.05;3.42;;;15.90;99.90;;;;;;5041608;28;20036;-37
2022/04/21 12:54:26;;;;;;;5.00;3.63;;;16.00;99.90;;;;;;5041279;28;20522;-37
2022/04/21 12:56:54;;;;;;;5.63;3.45;;;16.00;99.90;;;;;;5026542;28;20048;-37
2022/04/21 12:59:20;;;;;;;4.80;3.55;;;16.00;99.90;;;;;;5042664;28;20144;-37
2022/04/21 13:01:46;;;;;;;3.90;3.35;;;16.00;99.90;;;;;;5043179;28;20619;-37
2022/04/21 13:04:11;;;;;;;4.85;3.45;;;16.00;99.90;;;;;;5043075;28;20057;-37
2022/04/21 13:06:37;;;;;;;5.80;3.92;;;16.10;99.90;;;;;;5023131;28;20102;-37
2022/04/21 13:09:02;;;;;;;7.30;3.45;;;16.10;99.90;;;;;;5040301;28;20090;-37
2022/04/21 13:11:28;;;;;;;5.35;3.38;;;16.10;99.90;;;;;;5045663;28;20033;-37
2022/04/21 13:13:55;;;;;;;7.05;3.75;;;16.10;99.90;;;;;;5042354;28;20407;-37
2022/04/21 13:16:20;;;;;;;5.75;3.40;;;16.20;99.90;;;;;;5028859;28;20053;-37
2022/04/21 13:18:46;;;;;;;5.90;3.65;;;16.30;99.90;;;;;;5036497;28;20052;-37
2022/04/21 13:23:56;;;;;;;5.38;3.40;;;16.30;99.90;;;;;;5042667;28;20051;-37
2022/04/21 13:26:28;;;;;;;5.38;3.13;;;16.40;99.90;;;;;;5030011;28;20036;-38
2022/04/21 13:29:00;;;;;;;4.13;3.42;;;16.40;99.90;;;;;;5035962;28;20049;-37
2022/04/21 13:34:10;;;;;;;5.68;3.95;;;16.50;99.90;;;;;;5042035;28;20462;-38
2022/04/21 13:36:38;;;;;;;4.97;3.67;;;16.50;99.90;;;;;;5027041;28;20033;-37